Time;durP1;ratioP1;P1;durP2;ratioP2;P2;SDS_P1;SDS_P2;PMS_P1;PMS_P2;Temp;Humidity;BMP_temperature;BMP_pressure;BME280_temperature;BME280_humidity;BME280_pressure;Samples;Min_cycle;Max_cycle;Signal;HPM_P1;HPM_P2
2022/03/25 00:02:16;;;;;;;74.80;42.28;;;;;;;2.62;79.44;102726.09;10478748;28;20048;-78
2022/03/25 00:07:17;;;;;;;74.13;43.10;;;;;;;2.62;80.15;102731.28;10476237;28;20443;-78
2022/03/25 00:12:17;;;;;;;70.80;46.08;;;;;;;2.52;79.65;102728.44;10475908;28;20056;-78
2022/03/25 00:17:18;;;;;;;63.92;41.00;;;;;;;2.54;81.22;102733.78;10476809;28;20255;-78
2022/03/25 00:22:18;;;;;;;71.35;41.83;;;;;;;2.45;80.59;102737.19;10475845;28;20028;-78
2022/03/25 00:27:19;;;;;;;70.32;41.88;;;;;;;2.38;81.14;102738.91;10458828;28;20033;-78
2022/03/25 00:32:20;;;;;;;62.97;38.58;;;;;;;2.29;81.79;102742.31;10476994;28;20127;-78
2022/03/25 00:37:21;;;;;;;78.20;47.72;;;;;;;2.30;81.53;102740.66;10494285;28;20040;-78
2022/03/25 00:42:21;;;;;;;70.95;45.17;;;;;;;2.16;82.03;102736.53;10493229;28;20464;-78
2022/03/25 00:47:23;;;;;;;67.57;42.60;;;;;;;2.12;82.44;102734.34;10443719;28;20049;-78
2022/03/25 00:52:24;;;;;;;73.30;46.13;;;;;;;2.24;83.45;102727.97;10495664;28;20399;-78
2022/03/25 00:57:24;;;;;;;70.78;43.13;;;;;;;2.20;83.20;102718.97;10483581;28;20063;-78
2022/03/25 01:02:25;;;;;;;71.97;42.92;;;;;;;2.12;83.50;102724.94;10466818;28;20064;-78
2022/03/25 01:07:25;;;;;;;71.70;41.53;;;;;;;1.98;83.32;102719.91;10484893;28;20112;-78
2022/03/25 01:12:26;;;;;;;73.80;43.20;;;;;;;1.86;83.90;102732.34;10501120;28;20059;-78
2022/03/25 01:17:27;;;;;;;80.53;46.30;;;;;;;1.89;85.20;102728.47;10484709;28;20073;-78
2022/03/25 01:22:27;;;;;;;79.22;45.08;;;;;;;2.08;86.05;102720.19;10479612;28;20024;-78
2022/03/25 01:27:28;;;;;;;88.45;50.55;;;;;;;1.94;85.08;102723.78;10434626;28;20056;-78
2022/03/25 01:32:28;;;;;;;72.95;45.10;;;;;;;1.83;85.23;102724.25;10454872;28;20028;-78
2022/03/25 01:37:29;;;;;;;82.85;45.60;;;;;;;1.72;85.25;102716.22;10500808;28;20045;-78
2022/03/25 01:42:34;;;;;;;76.05;45.80;;;;;;;1.67;85.40;102719.03;10481728;28;20075;-78
2022/03/25 01:47:35;;;;;;;68.07;43.10;;;;;;;1.63;85.23;102719.44;10451242;28;20110;-77
2022/03/25 01:52:35;;;;;;;82.93;50.42;;;;;;;1.57;85.57;102715.41;10466147;28;20043;-78
2022/03/25 01:57:36;;;;;;;80.03;47.70;;;;;;;1.56;85.40;102725.53;10481705;28;20067;-78
2022/03/25 02:02:37;;;;;;;84.70;49.28;;;;;;;1.53;85.75;102723.53;10482390;28;20040;-78
2022/03/25 02:07:38;;;;;;;85.80;51.70;;;;;;;1.65;86.14;102720.53;10480943;28;20416;-77
2022/03/25 02:12:39;;;;;;;83.43;51.40;;;;;;;1.67;86.46;102722.53;10497963;28;20325;-77
2022/03/25 02:17:40;;;;;;;62.60;36.10;;;;;;;1.81;86.42;102718.00;10499450;28;20036;-78
2022/03/25 02:22:40;;;;;;;96.13;57.65;;;;;;;1.93;86.10;102713.31;10447485;28;20336;-78
2022/03/25 02:27:41;;;;;;;96.80;55.58;;;;;;;1.92;86.33;102708.88;10479635;28;20032;-78
2022/03/25 02:32:41;;;;;;;103.53;58.95;;;;;;;1.98;86.19;102712.16;10446934;28;20135;-77
2022/03/25 02:37:42;;;;;;;86.50;50.53;;;;;;;1.96;85.85;102717.13;10479861;28;20127;-78
2022/03/25 02:42:42;;;;;;;89.45;56.67;;;;;;;1.96;86.17;102717.13;10479257;28;20059;-78
2022/03/25 02:47:43;;;;;;;87.78;53.42;;;;;;;1.94;86.24;102717.72;10496428;28;20056;-77
2022/03/25 02:52:43;;;;;;;94.57;54.50;;;;;;;1.94;85.68;102725.47;10463624;28;20036;-78
2022/03/25 02:57:44;;;;;;;94.32;54.78;;;;;;;1.90;85.55;102719.03;10498492;28;20064;-78
2022/03/25 03:02:44;;;;;;;77.53;46.60;;;;;;;1.83;85.70;102721.66;10479337;28;20496;-77
2022/03/25 03:07:45;;;;;;;86.53;50.90;;;;;;;1.74;85.99;102719.88;10478088;28;20056;-78
2022/03/25 03:12:45;;;;;;;92.22;50.20;;;;;;;1.62;86.06;102723.66;10480433;28;20020;-77
2022/03/25 03:17:46;;;;;;;88.22;53.47;;;;;;;1.49;85.86;102730.75;10461029;28;20511;-78
2022/03/25 03:22:48;;;;;;;82.30;51.55;;;;;;;1.39;86.13;102724.53;10462701;28;20055;-77
2022/03/25 03:27:48;;;;;;;81.53;47.10;;;;;;;1.32;86.17;102727.16;10444408;28;20211;-78
2022/03/25 03:32:55;;;;;;;100.63;54.67;;;;;;;1.35;86.56;102726.59;10461917;28;20433;-78
2022/03/25 03:37:55;;;;;;;91.22;52.78;;;;;;;1.40;86.62;102728.06;10477874;28;20043;-78
2022/03/25 03:42:56;;;;;;;102.07;56.30;;;;;;;1.38;86.04;102725.28;10478557;28;20510;-77
2022/03/25 03:47:56;;;;;;;112.38;57.53;;;;;;;1.48;86.95;102726.31;10476899;28;20048;-78
2022/03/25 03:52:57;;;;;;;111.68;57.75;;;;;;;1.62;87.11;102731.41;10478704;28;20042;-78
2022/03/25 03:57:58;;;;;;;112.18;59.55;;;;;;;1.70;87.03;102733.19;10476334;28;20555;-78
2022/03/25 04:02:58;;;;;;;98.18;54.08;;;;;;;1.60;86.43;102733.81;10476180;28;20471;-77
2022/03/25 04:07:59;;;;;;;97.05;49.42;;;;;;;1.48;86.65;102735.00;10479049;28;20063;-77
2022/03/25 04:12:59;;;;;;;92.43;52.53;;;;;;;1.37;86.18;102736.34;10459840;28;20556;-78
2022/03/25 04:18:00;;;;;;;98.90;52.63;;;;;;;1.19;87.02;102730.00;10475423;28;20503;-77
2022/03/25 04:23:00;;;;;;;92.43;49.58;;;;;;;1.01;86.99;102737.44;10460894;28;20031;-78
2022/03/25 04:28:01;;;;;;;93.72;52.22;;;;;;;0.83;87.02;102746.50;10460430;28;20455;-78
2022/03/25 04:33:02;;;;;;;99.75;54.20;;;;;;;0.66;86.96;102738.47;10486293;28;20115;-78
2022/03/25 04:38:03;;;;;;;94.18;54.97;;;;;;;0.53;87.60;102752.47;10483485;28;20833;-78
2022/03/25 04:43:04;;;;;;;108.07;57.20;;;;;;;0.54;88.11;102753.41;10486421;28;20024;-77
2022/03/25 04:48:05;;;;;;;106.57;57.95;;;;;;;0.58;88.75;102751.38;10482946;28;20040;-77
2022/03/25 04:53:05;;;;;;;113.68;56.45;;;;;;;0.53;89.50;102752.47;10503169;28;20064;-78
2022/03/25 04:58:06;;;;;;;109.22;57.50;;;;;;;0.34;89.00;102757.13;10467100;28;20021;-76
2022/03/25 05:03:06;;;;;;;112.18;61.47;;;;;;;0.30;89.81;102757.50;10501141;28;20020;-77
2022/03/25 05:08:08;;;;;;;101.13;59.28;;;;;;;0.23;89.68;102754.91;10482947;28;20025;-74
2022/03/25 05:13:09;;;;;;;111.20;59.33;;;;;;;0.08;89.48;102761.69;10500229;28;20481;-77
2022/03/25 05:18:09;;;;;;;117.78;66.32;;;;;;;-0.04;89.50;102763.72;10480936;28;20052;-77
2022/03/25 05:23:10;;;;;;;112.65;66.82;;;;;;;-0.01;90.06;102771.84;10477452;28;20081;-78
2022/03/25 05:28:10;;;;;;;122.70;66.32;;;;;;;-0.17;90.63;102769.97;10498222;28;20051;-78
2022/03/25 05:33:11;;;;;;;120.43;63.58;;;;;;;-0.16;90.71;102763.16;10481313;28;20165;-78
2022/03/25 05:38:12;;;;;;;118.82;66.65;;;;;;;-0.06;91.07;102765.22;10479504;28;20116;-77
2022/03/25 05:43:14;;;;;;;124.72;58.50;;;;;;;-0.09;91.43;102772.56;10480994;28;20036;-77
2022/03/25 05:48:14;;;;;;;;;;;;;;;-0.07;91.42;102781.38;10499172;28;20089;-80
2022/03/25 05:53:15;;;;;;;118.75;62.67;;;;;;;0.04;91.75;102786.19;10500115;28;19916;-78
2022/03/25 05:58:17;;;;;;;123.05;58.75;;;;;;;0.13;91.85;102786.34;10493707;28;20076;-75
2022/03/25 06:03:17;;;;;;;111.97;58.78;;;;;;;0.25;91.90;102784.34;10515739;28;20103;-77
2022/03/25 06:08:18;;;;;;;129.15;63.28;;;;;;;0.40;91.02;102792.97;10474311;28;20029;-76
2022/03/25 06:13:18;;;;;;;107.20;58.00;;;;;;;0.53;91.38;102804.00;10479746;28;20042;-76
2022/03/25 06:18:19;;;;;;;103.65;58.13;;;;;;;0.90;91.01;102792.00;10461778;28;20458;-77
2022/03/25 06:23:20;;;;;;;88.68;50.67;;;;;;;1.93;88.18;102791.69;10478191;28;20060;-76
2022/03/25 06:28:22;;;;;;;79.35;47.70;;;;;;;3.11;84.09;102786.53;10479865;28;20112;-76
2022/03/25 06:33:22;;;;;;;69.18;40.72;;;;;;;4.13;77.93;102783.47;10462622;28;20028;-77
2022/03/25 06:38:23;;;;;;;69.63;39.13;;;;;;;4.80;73.88;102790.25;10478937;28;20163;-78
2022/03/25 06:43:23;;;;;;;64.15;38.30;;;;;;;5.46;70.02;102793.38;10443909;28;20051;-78
2022/03/25 06:48:24;;;;;;;60.85;37.83;;;;;;;6.60;66.76;102789.59;10408943;28;20068;-78
2022/03/25 06:53:25;;;;;;;65.82;36.42;;;;;;;7.62;64.60;102791.13;10413630;28;20104;-77
2022/03/25 06:58:25;;;;;;;61.45;36.13;;;;;;;8.46;60.09;102790.66;10399637;28;20394;-79
2022/03/25 07:03:26;;;;;;;58.30;34.72;;;;;;;9.04;60.51;102791.28;10373675;28;20030;-79
2022/03/25 07:08:30;;;;;;;65.95;38.55;;;;;;;9.70;59.84;102795.84;10374732;28;20497;-81
2022/03/25 07:13:31;;;;;;;62.35;36.00;;;;;;;10.81;57.07;102797.66;10395555;28;20115;-79
2022/03/25 07:18:31;;;;;;;67.25;43.55;;;;;;;12.70;51.13;102799.16;10395740;28;20516;-79
2022/03/25 07:23:32;;;;;;;76.35;41.50;;;;;;;13.44;48.52;102800.69;10373305;28;20119;-78
2022/03/25 07:28:33;;;;;;;79.78;46.58;;;;;;;13.79;47.68;102797.75;10387641;28;20485;-78
2022/03/25 07:33:34;;;;;;;68.57;43.88;;;;;;;14.34;46.86;102802.09;10411649;28;20071;-78
2022/03/25 07:38:35;;;;;;;73.00;45.75;;;;;;;14.57;45.48;102805.28;10413609;28;20120;-78
2022/03/25 07:43:36;;;;;;;73.33;47.80;;;;;;;15.38;43.22;102811.06;10394644;28;20033;-77
2022/03/25 07:48:36;;;;;;;86.80;49.78;;;;;;;15.75;42.43;102817.56;10471898;28;20498;-78
2022/03/25 07:53:37;;;;;;;81.93;52.88;;;;;;;16.28;41.56;102809.97;10461752;28;20404;-78
2022/03/25 07:58:37;;;;;;;70.15;45.58;;;;;;;16.55;41.26;102825.50;10460320;28;20028;-78
2022/03/25 08:03:38;;;;;;;77.85;49.90;;;;;;;17.05;39.88;102833.44;10458850;28;20496;-78
2022/03/25 08:08:38;;;;;;;82.03;50.20;;;;;;;17.02;39.66;102824.53;10458715;28;20083;-78
2022/03/25 08:13:39;;;;;;;73.50;48.78;;;;;;;17.32;40.10;102829.59;10475747;28;20063;-78
2022/03/25 08:18:39;;;;;;;90.07;52.72;;;;;;;16.51;41.35;102835.03;10477305;28;20076;-78
2022/03/25 08:29:02;;;;;;;84.68;56.85;;;;;;;18.14;37.29;102837.13;10476162;28;20107;-78
2022/03/25 08:34:03;;;;;;;84.03;52.60;;;;;;;17.24;38.99;102838.88;10423158;28;20060;-78
2022/03/25 08:39:03;;;;;;;79.13;52.50;;;;;;;18.05;36.92;102849.09;10425683;28;20040;-78
2022/03/25 08:44:04;;;;;;;73.60;50.08;;;;;;;16.88;39.00;102851.94;10475804;28;20060;-78
2022/03/25 08:49:05;;;;;;;86.95;54.45;;;;;;;15.98;42.63;102862.88;10459916;28;20040;-78
2022/03/25 08:54:06;;;;;;;77.78;50.13;;;;;;;16.53;41.10;102862.44;10475694;28;20056;-78
2022/03/25 08:59:07;;;;;;;73.70;50.40;;;;;;;17.99;38.14;102862.03;10476093;28;20108;-78
2022/03/25 09:04:08;;;;;;;78.97;51.93;;;;;;;19.19;35.42;102859.56;10469793;28;20275;-78
2022/03/25 09:09:09;;;;;;;85.88;51.05;;;;;;;19.79;34.42;102859.47;10492488;28;20031;-78
2022/03/25 09:14:09;;;;;;;77.97;51.83;;;;;;;19.97;34.42;102870.81;10494557;28;20035;-78
2022/03/25 09:19:10;;;;;;;80.88;53.60;;;;;;;20.47;34.61;102871.91;10498040;28;20158;-78
2022/03/25 09:24:11;;;;;;;80.70;53.28;;;;;;;19.99;35.97;102869.13;10501779;28;20059;-78
2022/03/25 09:29:11;;;;;;;81.60;56.53;;;;;;;20.14;36.86;102874.16;10500468;28;20041;-78
2022/03/25 09:39:31;;;;;;;79.50;52.65;;;;;;;21.95;32.45;102870.03;10471647;28;20464;-78
2022/03/25 09:44:32;;;;;;;80.75;56.30;;;;;;;21.44;32.74;102870.09;10481753;28;20059;-78
2022/03/25 09:49:32;;;;;;;76.40;52.27;;;;;;;22.17;31.01;102864.50;10481055;28;20044;-78
2022/03/25 09:54:33;;;;;;;82.50;53.73;;;;;;;22.50;30.60;102853.09;10498533;28;20074;-78
2022/03/25 09:59:33;;;;;;;87.73;56.77;;;;;;;22.87;30.64;102859.50;10480414;28;20037;-78
2022/03/25 10:04:35;;;;;;;71.47;52.73;;;;;;;23.45;28.51;102854.81;10481131;28;20052;-78
2022/03/25 10:09:36;;;;;;;67.93;47.65;;;;;;;24.31;28.85;102856.88;10481919;28;20025;-78
2022/03/25 10:14:36;;;;;;;72.47;53.07;;;;;;;23.40;29.21;102860.94;10479798;28;20039;-79
2022/03/25 10:19:45;;;;;;;71.07;48.00;;;;;;;23.20;29.89;102863.94;10479707;28;20037;-78
2022/03/25 10:24:52;;;;;;;66.72;47.58;;;;;;;23.49;29.12;102862.91;10464634;28;20101;-78
2022/03/25 10:29:56;;;;;;;75.82;55.45;;;;;;;24.30;28.38;102849.72;10464682;28;20033;-79
2022/03/25 10:35:10;;;;;;;66.22;46.22;;;;;;;24.70;27.21;102847.88;10480309;28;20074;-78
2022/03/25 10:40:11;;;;;;;71.32;48.63;;;;;;;25.09;25.98;102850.44;10480712;28;20127;-78
2022/03/25 10:45:34;;;;;;;72.87;47.47;;;;;;;24.57;28.67;102845.81;10497100;28;20033;-78
2022/03/25 10:50:34;;;;;;;69.78;47.13;;;;;;;24.63;27.73;102846.84;10495687;28;20127;-78
2022/03/25 10:55:35;;;;;;;69.83;50.20;;;;;;;25.03;27.02;102849.44;10461672;28;20116;-78
2022/03/25 11:00:36;;;;;;;65.37;46.57;;;;;;;24.96;26.75;102842.16;10495086;28;20078;-81
2022/03/25 11:05:39;;;;;;;68.63;46.00;;;;;;;25.33;27.34;102836.56;10460235;28;20067;-79
2022/03/25 11:10:40;;;;;;;73.07;48.92;;;;;;;25.01;26.34;102832.44;10452757;28;20153;-79
2022/03/25 11:15:41;;;;;;;81.50;49.27;;;;;;;25.53;25.44;102826.22;10496985;28;20074;-79
2022/03/25 11:20:41;;;;;;;66.77;44.10;;;;;;;25.92;23.95;102827.69;10477123;28;20041;-79
2022/03/25 11:25:53;;;;;;;64.90;46.10;;;;;;;25.63;24.29;102822.81;10478437;28;20056;-79
2022/03/25 11:30:58;;;;;;;58.45;38.90;;;;;;;25.58;25.20;102818.22;10437815;28;20029;-79
2022/03/25 11:36:28;;;;;;;56.45;36.65;;;;;;;25.92;23.90;102818.75;10467108;28;20029;-79
2022/03/25 11:41:28;;;;;;;46.50;32.95;;;;;;;25.72;23.10;102808.63;10474412;28;20598;-79
2022/03/25 11:46:29;;;;;;;47.23;34.27;;;;;;;25.44;24.18;102801.91;10478752;28;20091;-77
2022/03/25 11:51:31;;;;;;;50.73;32.20;;;;;;;25.89;24.35;102797.25;10461720;28;20444;-77
2022/03/25 11:56:48;;;;;;;51.55;32.50;;;;;;;25.61;22.52;102789.72;10460121;28;20395;-77
2022/03/25 12:01:49;;;;;;;47.25;29.48;;;;;;;25.20;24.17;102792.59;10459217;28;20379;-77
2022/03/25 12:07:01;;;;;;;45.77;31.97;;;;;;;25.13;22.93;102790.69;10460004;28;20040;-77
2022/03/25 12:12:01;;;;;;;47.28;31.00;;;;;;;25.26;24.42;102783.72;10477571;28;20020;-77
2022/03/25 12:17:09;;;;;;;38.73;27.83;;;;;;;26.01;23.31;102778.63;10477132;28;20032;-77
2022/03/25 12:22:18;;;;;;;43.78;30.05;;;;;;;26.43;22.35;102775.59;10460607;28;20111;-77
2022/03/25 12:27:19;;;;;;;42.03;29.17;;;;;;;26.88;21.07;102770.75;10494533;28;20451;-77
2022/03/25 12:32:24;;;;;;;41.15;24.77;;;;;;;27.04;21.35;102763.72;10460276;28;20115;-76
2022/03/25 12:38:05;;;;;;;23.65;14.90;;;;;;;26.45;19.20;102760.41;10480528;28;20124;-76
2022/03/25 12:43:10;;;;;;;26.80;16.10;;;;;;;24.65;20.69;102761.22;10452900;28;20045;-77
2022/03/25 12:48:11;;;;;;;27.20;17.90;;;;;;;24.91;21.31;102755.47;10475063;28;20775;-78
2022/03/25 12:53:12;;;;;;;30.50;20.93;;;;;;;24.64;20.87;102754.94;10502385;28;20082;-77
2022/03/25 12:58:13;;;;;;;26.93;18.87;;;;;;;25.03;21.86;102747.66;10437129;28;20037;-79
2022/03/25 13:03:14;;;;;;;49.10;21.73;;;;;;;25.16;22.17;102740.72;10443214;28;20025;-79
2022/03/25 13:08:15;;;;;;;34.17;23.80;;;;;;;25.66;21.56;102752.22;10472680;28;20578;-80
2022/03/25 13:13:15;;;;;;;33.00;20.93;;;;;;;24.93;22.81;102751.06;10466287;28;20025;-80
2022/03/25 13:18:19;;;;;;;34.27;22.43;;;;;;;24.96;20.95;102748.44;10482816;28;20056;-81
2022/03/25 13:23:21;;;;;;;27.38;19.20;;;;;;;24.87;21.34;102743.78;10467274;28;20036;-81
2022/03/25 13:28:21;;;;;;;33.53;22.38;;;;;;;24.43;22.43;102739.41;10465213;28;20506;-82
2022/03/25 13:33:26;;;;;;;35.10;22.70;;;;;;;24.86;21.97;102741.09;10482710;28;20069;-79
2022/03/25 13:38:36;;;;;;;35.28;24.17;;;;;;;25.44;22.58;102719.72;10420081;28;20579;-79
2022/03/25 13:43:41;;;;;;;38.63;22.52;;;;;;;24.28;23.67;102729.28;10495346;28;20040;-81
2022/03/25 13:48:43;;;;;;;37.42;26.15;;;;;;;22.99;24.02;102733.41;10408526;28;20052;-80
2022/03/25 13:53:49;;;;;;;36.10;23.00;;;;;;;23.11;24.62;102728.38;10412945;28;20056;-80
2022/03/25 13:58:54;;;;;;;42.03;26.97;;;;;;;23.68;24.99;102733.34;10409514;28;20034;-80
2022/03/25 14:04:06;;;;;;;47.95;30.17;;;;;;;22.28;25.08;102713.72;10414834;28;20159;-80
2022/03/25 14:09:36;;;;;;;42.30;27.07;;;;;;;22.43;25.30;102710.56;10414568;28;20125;-80
2022/03/25 14:14:36;;;;;;;40.00;26.73;;;;;;;22.73;24.81;102710.53;10401619;28;20025;-81
2022/03/25 14:19:37;;;;;;;37.72;27.42;;;;;;;22.60;26.04;102697.75;10417571;28;20057;-80
2022/03/25 14:24:39;;;;;;;41.07;27.97;;;;;;;23.07;24.56;102704.25;10417135;28;20492;-80
2022/03/25 14:29:39;;;;;;;40.75;25.98;;;;;;;22.08;26.04;102702.47;10395023;28;20025;-80
2022/03/25 14:34:40;;;;;;;42.50;27.20;;;;;;;21.11;26.92;102690.63;10413937;28;20017;-80
2022/03/25 14:39:40;;;;;;;37.03;25.73;;;;;;;21.85;26.69;102692.97;10414714;28;20080;-80
2022/03/25 14:44:41;;;;;;;42.28;27.80;;;;;;;21.82;26.24;102679.53;10411491;28;20037;-80
2022/03/25 14:49:42;;;;;;;37.35;28.67;;;;;;;22.30;25.79;102678.22;10495750;28;20438;-79
2022/03/25 14:54:43;;;;;;;38.70;25.85;;;;;;;21.96;27.53;102674.59;10464045;28;20035;-80
2022/03/25 14:59:44;;;;;;;37.00;24.25;;;;;;;22.17;26.91;102673.41;10478309;28;20422;-78
2022/03/25 15:04:45;;;;;;;39.57;24.20;;;;;;;21.76;26.25;102678.44;10493924;28;20051;-77
2022/03/25 15:09:45;;;;;;;34.67;23.58;;;;;;;20.02;29.04;102670.84;10496687;28;20021;-77
2022/03/25 15:14:46;;;;;;;38.60;26.88;;;;;;;18.14;33.21;102679.03;10497068;28;20025;-78
2022/03/25 15:19:47;;;;;;;36.30;24.95;;;;;;;18.88;31.79;102676.06;10476389;28;20071;-77
2022/03/25 15:24:47;;;;;;;36.28;22.88;;;;;;;20.00;29.71;102671.63;10426288;28;20110;-77
2022/03/25 15:35:07;;;;;;;36.35;25.23;;;;;;;19.21;31.52;102658.84;10469442;28;20511;-78
2022/03/25 15:40:08;;;;;;;39.47;22.45;;;;;;;19.00;31.54;102672.16;10432584;28;20473;-79
2022/03/25 15:45:09;;;;;;;33.50;22.20;;;;;;;17.96;32.30;102664.94;10454358;28;20028;-79
2022/03/25 15:50:10;;;;;;;38.35;24.15;;;;;;;16.72;35.96;102670.44;10440924;28;20033;-77
2022/03/25 15:55:11;;;;;;;38.08;23.33;;;;;;;16.76;35.07;102667.13;10471983;28;20029;-76
2022/03/25 16:00:12;;;;;;;35.88;24.15;;;;;;;16.82;35.39;102662.16;10489738;28;20068;-77
2022/03/25 16:05:13;;;;;;;30.73;19.10;;;;;;;16.74;34.20;102660.88;10471606;28;20480;-78
2022/03/25 16:10:18;;;;;;;28.83;17.23;;;;;;;16.46;34.39;102663.81;10453843;28;20037;-77
2022/03/25 16:15:20;;;;;;;31.92;17.35;;;;;;;16.15;33.79;102645.50;10491394;28;20038;-78
2022/03/25 16:20:21;;;;;;;32.30;17.50;;;;;;;15.85;34.91;102656.22;10494511;28;20024;-78
2022/03/25 16:25:22;;;;;;;28.02;17.10;;;;;;;15.60;36.01;102656.59;10459016;28;20415;-79
2022/03/25 16:30:23;;;;;;;30.65;17.65;;;;;;;15.40;36.37;102660.75;10476091;28;20039;-78
2022/03/25 16:35:23;;;;;;;30.38;17.17;;;;;;;15.27;35.85;102662.69;10476903;28;20064;-79
2022/03/25 16:40:24;;;;;;;29.50;16.48;;;;;;;15.08;36.91;102658.13;10470053;28;20492;-78
2022/03/25 16:45:26;;;;;;;27.95;16.92;;;;;;;14.96;36.11;102663.56;10457598;28;20068;-78
2022/03/25 16:50:29;;;;;;;31.20;17.60;;;;;;;14.79;37.29;102669.56;10475432;28;20041;-79
2022/03/25 16:55:30;;;;;;;29.08;17.40;;;;;;;14.59;37.28;102669.25;10443889;28;20033;-78
2022/03/25 17:00:31;;;;;;;32.55;16.67;;;;;;;14.41;38.26;102666.44;10479196;28;20062;-78
2022/03/25 17:05:33;;;;;;;29.15;17.17;;;;;;;14.18;38.35;102662.38;10481404;28;20074;-79
2022/03/25 17:10:43;;;;;;;29.83;16.63;;;;;;;13.93;38.37;102676.66;10459064;28;20115;-79
2022/03/25 17:15:47;;;;;;;29.57;18.03;;;;;;;13.49;40.73;102671.28;10456021;28;20032;-79
2022/03/25 17:20:50;;;;;;;42.30;17.48;;;;;;;12.98;42.02;102674.91;10450857;28;20480;-78
2022/03/25 17:25:51;;;;;;;33.80;20.08;;;;;;;12.55;43.53;102680.81;10487313;28;20033;-79
2022/03/25 17:30:55;;;;;;;31.30;16.05;;;;;;;12.41;42.37;102686.03;10461446;28;20107;-79
2022/03/25 17:36:03;;;;;;;33.90;16.63;;;;;;;12.27;43.31;102682.44;10483754;28;20115;-78
2022/03/25 17:41:10;;;;;;;34.85;16.65;;;;;;;11.98;44.40;102689.13;10488639;28;20047;-77
2022/03/25 17:46:11;;;;;;;39.08;18.98;;;;;;;11.54;45.35;102687.78;10491656;28;20044;-76
2022/03/25 17:51:12;;;;;;;29.52;16.90;;;;;;;11.18;46.19;102700.00;10479507;28;20060;-76
2022/03/25 17:56:12;;;;;;;36.03;19.52;;;;;;;10.60;47.18;102702.66;10481728;28;20078;-77
2022/03/25 18:01:13;;;;;;;30.58;16.75;;;;;;;10.10;49.38;102703.09;10458606;28;20448;-77
2022/03/25 18:06:16;;;;;;;30.40;18.80;;;;;;;9.74;50.69;102707.22;10432832;28;20036;-77
2022/03/25 18:11:17;;;;;;;42.50;20.08;;;;;;;9.34;51.57;102715.34;10445035;28;20431;-78
2022/03/25 18:16:17;;;;;;;37.42;20.33;;;;;;;8.93;54.21;102724.16;10478545;28;20037;-79
2022/03/25 18:21:18;;;;;;;44.97;21.98;;;;;;;8.59;55.42;102726.50;10462667;28;20055;-79
2022/03/25 18:26:19;;;;;;;42.75;20.30;;;;;;;8.30;56.77;102724.88;10479940;28;20112;-78
2022/03/25 18:31:19;;;;;;;34.72;20.42;;;;;;;8.00;58.03;102731.88;10495660;28;20040;-79
2022/03/25 18:36:20;;;;;;;38.33;18.85;;;;;;;7.74;58.72;102726.19;10476445;28;20082;-79
2022/03/25 18:41:22;;;;;;;35.42;20.45;;;;;;;7.50;59.37;102737.91;10497763;28;20495;-79
2022/03/25 18:46:22;;;;;;;47.50;21.85;;;;;;;7.14;59.84;102731.19;10476528;28;20040;-77
2022/03/25 18:51:23;;;;;;;40.22;23.13;;;;;;;6.99;61.21;102736.81;10471592;28;20036;-78
2022/03/25 18:56:23;;;;;;;46.63;22.45;;;;;;;6.95;61.21;102741.63;10424026;28;20068;-77
2022/03/25 19:01:24;;;;;;;41.08;23.65;;;;;;;6.84;61.38;102741.53;10447029;28;20043;-78
2022/03/25 19:06:24;;;;;;;39.63;21.77;;;;;;;6.80;61.31;102748.91;10453599;28;20025;-77
2022/03/25 19:11:32;;;;;;;46.38;26.98;;;;;;;6.61;61.96;102755.91;10451584;28;20044;-75
2022/03/25 19:16:32;;;;;;;43.65;26.42;;;;;;;6.48;61.92;102758.13;10462814;28;20072;-75
2022/03/25 19:21:33;;;;;;;38.75;22.02;;;;;;;6.31;62.37;102769.53;10450193;28;20111;-76
2022/03/25 19:26:34;;;;;;;42.78;24.33;;;;;;;6.25;62.58;102766.34;10444658;28;20024;-76
2022/03/25 19:31:34;;;;;;;43.90;24.73;;;;;;;6.19;63.07;102770.94;10473298;28;20040;-78
2022/03/25 19:36:35;;;;;;;37.63;24.90;;;;;;;6.08;63.68;102777.72;10456035;28;20060;-78
2022/03/25 19:41:35;;;;;;;38.50;22.23;;;;;;;5.93;64.02;102772.84;10476680;28;20035;-78
2022/03/25 19:46:36;;;;;;;39.55;23.27;;;;;;;5.76;64.16;102786.78;10455789;28;20404;-77
2022/03/25 19:51:37;;;;;;;58.28;37.28;;;;;;;5.61;65.81;102787.88;10452596;28;20036;-76
2022/03/25 19:56:38;;;;;;;45.35;27.33;;;;;;;5.42;65.81;102786.97;10449810;28;20376;-75
2022/03/25 20:01:41;;;;;;;39.78;24.33;;;;;;;5.37;66.59;102802.84;10458967;28;20035;-80
2022/03/25 20:06:42;;;;;;;37.15;25.80;;;;;;;5.24;67.22;102796.44;10457315;28;20029;-79
2022/03/25 20:11:42;;;;;;;41.90;23.42;;;;;;;5.17;67.79;102799.16;10445996;28;20480;-78
2022/03/25 20:16:43;;;;;;;40.85;23.48;;;;;;;5.19;68.09;102797.66;10452799;28;20052;-78
2022/03/25 20:21:43;;;;;;;38.60;23.92;;;;;;;5.07;68.00;102804.19;10472956;28;20533;-76
2022/03/25 20:26:44;;;;;;;46.70;24.70;;;;;;;5.03;68.84;102807.25;10438107;28;20115;-78
2022/03/25 20:31:45;;;;;;;39.97;25.90;;;;;;;4.91;69.30;102809.53;10451272;28;20029;-77
2022/03/25 20:36:45;;;;;;;39.00;25.80;;;;;;;4.90;69.62;102818.97;10455260;28;20356;-77
2022/03/25 20:41:51;;;;;;;141.82;82.13;;;;;;;4.80;69.57;102830.09;10458471;28;20040;-76
2022/03/25 20:46:53;;;;;;;85.85;48.00;;;;;;;4.85;69.89;102830.56;10453840;28;20079;-77
2022/03/25 20:51:54;;;;;;;55.22;31.67;;;;;;;4.74;70.61;102845.03;10452446;28;20502;-77
2022/03/25 20:56:58;;;;;;;57.78;30.35;;;;;;;4.64;70.81;102839.66;10460854;28;20399;-78
2022/03/25 21:01:58;;;;;;;53.60;28.45;;;;;;;4.70;70.74;102848.06;10473825;28;20059;-76
2022/03/25 21:07:04;;;;;;;47.63;27.92;;;;;;;4.76;70.89;102846.13;10449745;28;20025;-75
2022/03/25 21:12:05;;;;;;;44.55;25.70;;;;;;;4.70;70.80;102851.56;10444020;28;20039;-76
2022/03/25 21:17:06;;;;;;;54.90;27.35;;;;;;;4.54;71.15;102854.28;10448080;28;20024;-76
2022/03/25 21:22:07;;;;;;;46.60;29.23;;;;;;;4.48;72.21;102860.47;10481218;28;20048;-75
2022/03/25 21:27:08;;;;;;;53.30;32.35;;;;;;;4.48;72.17;102858.81;10487233;28;20536;-75
2022/03/25 21:32:09;;;;;;;51.70;32.70;;;;;;;4.47;72.42;102866.41;10477994;28;20093;-77
2022/03/25 21:37:10;;;;;;;45.63;28.77;;;;;;;4.35;72.75;102866.06;10442322;28;20082;-74
2022/03/25 21:42:10;;;;;;;48.75;28.85;;;;;;;4.21;73.18;102864.59;10455295;28;20543;-76
2022/03/25 21:47:11;;;;;;;53.10;25.75;;;;;;;4.17;73.80;102860.78;10467417;28;20049;-76
2022/03/25 21:52:11;;;;;;;58.40;34.78;;;;;;;4.11;74.14;102870.50;10457334;28;20123;-76
2022/03/25 21:57:12;;;;;;;46.30;29.80;;;;;;;4.06;74.26;102859.63;10489472;28;20053;-75
2022/03/25 22:02:12;;;;;;;53.00;30.25;;;;;;;4.00;75.04;102871.94;10470639;28;20064;-75
2022/03/25 22:07:13;;;;;;;44.75;28.30;;;;;;;3.96;75.59;102869.78;10441351;28;20379;-74
2022/03/25 22:12:14;;;;;;;48.53;33.80;;;;;;;3.92;75.81;102870.19;10492853;28;20033;-76
2022/03/25 22:17:14;;;;;;;53.33;29.42;;;;;;;3.84;76.08;102873.66;10469901;28;20017;-76
2022/03/25 22:22:15;;;;;;;49.35;31.58;;;;;;;3.88;76.25;102868.97;10475921;28;20552;-77
2022/03/25 22:27:15;;;;;;;56.25;29.40;;;;;;;3.80;76.26;102875.91;10480197;28;20112;-77
2022/03/25 22:32:16;;;;;;;53.28;31.55;;;;;;;3.70;76.57;102887.72;10446135;28;20029;-77
2022/03/25 22:37:17;;;;;;;46.70;28.98;;;;;;;3.59;77.85;102881.38;10422280;28;20025;-76
2022/03/25 22:42:17;;;;;;;52.05;32.47;;;;;;;3.56;77.86;102886.22;10463833;28;20032;-76
2022/03/25 22:47:18;;;;;;;52.55;29.05;;;;;;;3.49;78.66;102888.13;10462327;28;20048;-76
2022/03/25 22:52:19;;;;;;;63.15;31.48;;;;;;;3.52;78.68;102885.88;10446222;28;20373;-77
2022/03/25 22:57:20;;;;;;;55.60;32.67;;;;;;;3.47;78.77;102888.72;10498197;28;20020;-77